sensor_id;sensor_type;location;lat;lon;timestamp;pressure;altitude;pressure_sealevel;temperature;humidity
54146;BME280;65909;49.422;7.738;2023-04-03T00:02:14;77662.56;;;-145.25;67.80
54146;BME280;65909;49.422;7.738;2023-04-03T00:04:39;77666.59;;;-145.25;67.14
54146;BME280;65909;49.422;7.738;2023-04-03T00:07:04;77660.56;;;-145.25;67.50
54146;BME280;65909;49.422;7.738;2023-04-03T00:09:30;77670.59;;;-145.25;66.66
54146;BME280;65909;49.422;7.738;2023-04-03T00:11:56;77670.59;;;-145.25;67.24
54146;BME280;65909;49.422;7.738;2023-04-03T00:14:21;77670.59;;;-145.25;67.58
54146;BME280;65909;49.422;7.738;2023-04-03T00:16:47;77664.59;;;-145.25;66.97
54146;BME280;65909;49.422;7.738;2023-04-03T00:19:12;77650.53;;;-145.25;67.24
54146;BME280;65909;49.422;7.738;2023-04-03T00:21:38;77644.53;;;-145.25;66.95
54146;BME280;65909;49.422;7.738;2023-04-03T00:24:03;77634.50;;;-145.25;66.76
54146;BME280;65909;49.422;7.738;2023-04-03T00:26:29;77632.50;;;-145.25;65.97
54146;BME280;65909;49.422;7.738;2023-04-03T00:28:54;77626.47;;;-145.25;66.42
54146;BME280;65909;49.422;7.738;2023-04-03T00:31:21;77624.47;;;-145.25;66.69
54146;BME280;65909;49.422;7.738;2023-04-03T00:33:46;77630.50;;;-145.25;66.44
54146;BME280;65909;49.422;7.738;2023-04-03T00:36:12;77628.47;;;-145.25;66.55
54146;BME280;65909;49.422;7.738;2023-04-03T00:38:37;77634.50;;;-145.25;66.90
54146;BME280;65909;49.422;7.738;2023-04-03T00:41:03;77634.50;;;-145.25;65.79
54146;BME280;65909;49.422;7.738;2023-04-03T00:43:29;77632.50;;;-145.25;66.39
54146;BME280;65909;49.422;7.738;2023-04-03T00:45:56;77630.50;;;-145.25;66.68
54146;BME280;65909;49.422;7.738;2023-04-03T00:50:50;77624.47;;;-145.25;65.79
54146;BME280;65909;49.422;7.738;2023-04-03T00:53:21;77640.50;;;-145.25;65.80
54146;BME280;65909;49.422;7.738;2023-04-03T00:55:48;77644.53;;;-145.25;65.84
54146;BME280;65909;49.422;7.738;2023-04-03T00:58:16;77652.56;;;-145.25;65.41
54146;BME280;65909;49.422;7.738;2023-04-03T01:00:46;77676.63;;;-145.25;66.08
54146;BME280;65909;49.422;7.738;2023-04-03T01:03:13;77672.59;;;-145.25;67.02
54146;BME280;65909;49.422;7.738;2023-04-03T01:05:39;77682.63;;;-145.25;66.54
54146;BME280;65909;49.422;7.738;2023-04-03T01:08:05;77684.63;;;-145.25;66.51
54146;BME280;65909;49.422;7.738;2023-04-03T01:10:31;77686.63;;;-145.25;67.43
54146;BME280;65909;49.422;7.738;2023-04-03T01:12:56;77684.63;;;-145.25;67.30
54146;BME280;65909;49.422;7.738;2023-04-03T01:15:26;77672.59;;;-145.25;66.33
54146;BME280;65909;49.422;7.738;2023-04-03T01:17:57;77676.63;;;-145.25;66.16
54146;BME280;65909;49.422;7.738;2023-04-03T01:25:37;77656.56;;;-145.25;66.98
54146;BME280;65909;49.422;7.738;2023-04-03T01:28:07;77652.56;;;-145.25;66.16
54146;BME280;65909;49.422;7.738;2023-04-03T01:30:43;77644.53;;;-145.25;65.52
54146;BME280;65909;49.422;7.738;2023-04-03T01:33:10;77642.53;;;-145.25;66.12
54146;BME280;65909;49.422;7.738;2023-04-03T01:35:36;77648.53;;;-145.25;66.56
54146;BME280;65909;49.422;7.738;2023-04-03T01:38:02;77652.56;;;-145.25;67.00
54146;BME280;65909;49.422;7.738;2023-04-03T01:40:27;77638.50;;;-145.25;65.90
54146;BME280;65909;49.422;7.738;2023-04-03T01:42:53;77642.53;;;-145.25;66.32
54146;BME280;65909;49.422;7.738;2023-04-03T01:45:18;77648.53;;;-145.25;65.91
54146;BME280;65909;49.422;7.738;2023-04-03T01:47:43;77648.53;;;-145.25;66.40
54146;BME280;65909;49.422;7.738;2023-04-03T01:50:09;77646.53;;;-145.25;66.59
54146;BME280;65909;49.422;7.738;2023-04-03T01:52:34;77640.50;;;-145.25;66.63
54146;BME280;65909;49.422;7.738;2023-04-03T01:54:59;77648.53;;;-145.25;66.93
54146;BME280;65909;49.422;7.738;2023-04-03T01:57:25;77648.53;;;-145.25;67.23
54146;BME280;65909;49.422;7.738;2023-04-03T01:59:50;77642.53;;;-145.25;66.90
54146;BME280;65909;49.422;7.738;2023-04-03T02:02:16;77640.50;;;-145.25;66.69
54146;BME280;65909;49.422;7.738;2023-04-03T02:04:41;77648.53;;;-145.25;67.22
54146;BME280;65909;49.422;7.738;2023-04-03T02:07:07;77658.56;;;-145.25;67.57
54146;BME280;65909;49.422;7.738;2023-04-03T02:09:32;77668.59;;;-145.25;67.39
54146;BME280;65909;49.422;7.738;2023-04-03T02:11:57;77668.59;;;-145.25;68.05
54146;BME280;65909;49.422;7.738;2023-04-03T02:14:23;77676.63;;;-145.25;68.09
54146;BME280;65909;49.422;7.738;2023-04-03T02:16:49;77676.63;;;-145.25;67.82
54146;BME280;65909;49.422;7.738;2023-04-03T02:19:14;77676.63;;;-145.25;69.17
54146;BME280;65909;49.422;7.738;2023-04-03T02:21:40;77688.66;;;-145.25;68.54
54146;BME280;65909;49.422;7.738;2023-04-03T02:24:05;77688.66;;;-145.25;69.09
54146;BME280;65909;49.422;7.738;2023-04-03T02:26:31;77686.63;;;-145.25;69.01
54146;BME280;65909;49.422;7.738;2023-04-03T02:28:56;77678.63;;;-145.25;69.30
54146;BME280;65909;49.422;7.738;2023-04-03T02:31:22;77668.59;;;-145.25;68.65
54146;BME280;65909;49.422;7.738;2023-04-03T02:33:47;77660.56;;;-145.25;68.25
54146;BME280;65909;49.422;7.738;2023-04-03T02:36:13;77656.56;;;-145.25;68.00
54146;BME280;65909;49.422;7.738;2023-04-03T02:38:38;77670.59;;;-145.25;68.34
54146;BME280;65909;49.422;7.738;2023-04-03T02:41:07;77660.56;;;-145.25;67.58
54146;BME280;65909;49.422;7.738;2023-04-03T02:43:33;77676.63;;;-145.25;68.52
54146;BME280;65909;49.422;7.738;2023-04-03T02:45:59;77686.63;;;-145.25;67.65
54146;BME280;65909;49.422;7.738;2023-04-03T02:48:24;77680.63;;;-145.25;67.85
54146;BME280;65909;49.422;7.738;2023-04-03T02:50:50;77676.63;;;-145.25;67.64
54146;BME280;65909;49.422;7.738;2023-04-03T02:53:16;77676.63;;;-145.25;67.72
54146;BME280;65909;49.422;7.738;2023-04-03T02:55:41;77672.59;;;-145.25;68.41
54146;BME280;65909;49.422;7.738;2023-04-03T02:58:07;77684.63;;;-145.25;67.02
54146;BME280;65909;49.422;7.738;2023-04-03T03:00:33;77698.69;;;-145.25;66.95
54146;BME280;65909;49.422;7.738;2023-04-03T03:02:59;77700.69;;;-145.25;66.03
54146;BME280;65909;49.422;7.738;2023-04-03T03:05:25;77710.72;;;-145.25;65.19
54146;BME280;65909;49.422;7.738;2023-04-03T03:07:50;77728.75;;;-145.25;64.40
54146;BME280;65909;49.422;7.738;2023-04-03T03:10:15;77732.75;;;-145.25;64.08
54146;BME280;65909;49.422;7.738;2023-04-03T03:12:41;77740.78;;;-145.25;63.55
54146;BME280;65909;49.422;7.738;2023-04-03T03:15:07;77744.81;;;-145.25;62.36
54146;BME280;65909;49.422;7.738;2023-04-03T03:17:32;77754.81;;;-145.25;62.25
54146;BME280;65909;49.422;7.738;2023-04-03T03:19:58;77758.84;;;-145.25;62.05
54146;BME280;65909;49.422;7.738;2023-04-03T03:22:23;77762.84;;;-145.25;61.43
54146;BME280;65909;49.422;7.738;2023-04-03T03:24:48;77764.84;;;-145.25;62.77
54146;BME280;65909;49.422;7.738;2023-04-03T03:27:14;77748.81;;;-145.25;62.23
54146;BME280;65909;49.422;7.738;2023-04-03T03:29:41;77764.84;;;-145.25;60.98
54146;BME280;65909;49.422;7.738;2023-04-03T03:32:06;77780.91;;;-145.25;61.15
54146;BME280;65909;49.422;7.738;2023-04-03T03:34:32;77778.91;;;-145.25;61.12
54146;BME280;65909;49.422;7.738;2023-04-03T03:36:57;77786.91;;;-145.25;61.04
54146;BME280;65909;49.422;7.738;2023-04-03T03:39:23;77802.97;;;-145.25;61.84
54146;BME280;65909;49.422;7.738;2023-04-03T03:41:48;77821.00;;;-145.25;61.30
54146;BME280;65909;49.422;7.738;2023-04-03T03:44:14;77823.00;;;-145.25;61.71
54146;BME280;65909;49.422;7.738;2023-04-03T03:46:40;77819.00;;;-145.25;62.33
54146;BME280;65909;49.422;7.738;2023-04-03T03:49:05;77804.97;;;-145.25;61.94
54146;BME280;65909;49.422;7.738;2023-04-03T03:51:31;77800.97;;;-145.25;62.43
54146;BME280;65909;49.422;7.738;2023-04-03T03:53:56;77837.06;;;-145.25;62.60
54146;BME280;65909;49.422;7.738;2023-04-03T03:56:21;77825.03;;;-145.25;62.71
54146;BME280;65909;49.422;7.738;2023-04-03T03:58:47;77829.03;;;-145.25;63.74
54146;BME280;65909;49.422;7.738;2023-04-03T04:01:13;77808.97;;;-145.25;62.86
54146;BME280;65909;49.422;7.738;2023-04-03T04:03:38;77806.97;;;-145.25;62.01
54146;BME280;65909;49.422;7.738;2023-04-03T04:06:03;77827.03;;;-145.25;62.15
54146;BME280;65909;49.422;7.738;2023-04-03T04:08:29;77817.00;;;-145.25;62.84
54146;BME280;65909;49.422;7.738;2023-04-03T04:10:54;77829.03;;;-145.25;62.79
54146;BME280;65909;49.422;7.738;2023-04-03T04:13:20;77867.13;;;-145.25;62.38
54146;BME280;65909;49.422;7.738;2023-04-03T04:15:45;77863.13;;;-145.25;62.23
54146;BME280;65909;49.422;7.738;2023-04-03T04:18:11;77869.13;;;-145.25;62.75
54146;BME280;65909;49.422;7.738;2023-04-03T04:20:36;77863.13;;;-145.25;63.01
54146;BME280;65909;49.422;7.738;2023-04-03T04:23:02;77861.13;;;-145.25;62.91
54146;BME280;65909;49.422;7.738;2023-04-03T04:25:27;77869.13;;;-145.25;62.92
54146;BME280;65909;49.422;7.738;2023-04-03T04:27:52;77855.09;;;-145.25;62.40
54146;BME280;65909;49.422;7.738;2023-04-03T04:30:18;77863.13;;;-145.25;61.88
54146;BME280;65909;49.422;7.738;2023-04-03T04:32:43;77869.13;;;-145.25;62.09
54146;BME280;65909;49.422;7.738;2023-04-03T04:35:09;77881.19;;;-145.25;62.18
54146;BME280;65909;49.422;7.738;2023-04-03T04:37:34;77869.13;;;-145.25;63.35
54146;BME280;65909;49.422;7.738;2023-04-03T04:40:00;77871.16;;;-145.25;63.71
54146;BME280;65909;49.422;7.738;2023-04-03T04:42:25;77863.13;;;-145.25;63.50
54146;BME280;65909;49.422;7.738;2023-04-03T04:44:51;77855.09;;;-145.25;63.51
54146;BME280;65909;49.422;7.738;2023-04-03T04:47:16;77849.09;;;-145.25;62.70
54146;BME280;65909;49.422;7.738;2023-04-03T04:49:42;77857.09;;;-145.25;62.57
54146;BME280;65909;49.422;7.738;2023-04-03T04:52:07;77859.13;;;-145.25;62.60
54146;BME280;65909;49.422;7.738;2023-04-03T04:54:33;77879.16;;;-145.25;62.74
54146;BME280;65909;49.422;7.738;2023-04-03T04:56:58;77877.16;;;-145.25;62.33
54146;BME280;65909;49.422;7.738;2023-04-03T04:59:23;77887.19;;;-145.25;63.14
54146;BME280;65909;49.422;7.738;2023-04-03T05:01:49;77905.25;;;-145.25;63.87
54146;BME280;65909;49.422;7.738;2023-04-03T05:04:14;77909.25;;;-145.25;63.74
54146;BME280;65909;49.422;7.738;2023-04-03T05:06:40;77907.25;;;-145.25;64.60
54146;BME280;65909;49.422;7.738;2023-04-03T05:09:05;77917.28;;;-145.25;65.40
54146;BME280;65909;49.422;7.738;2023-04-03T05:11:31;77919.28;;;-145.25;65.15
54146;BME280;65909;49.422;7.738;2023-04-03T05:13:57;77925.31;;;-145.25;65.82
54146;BME280;65909;49.422;7.738;2023-04-03T05:16:22;77933.31;;;-145.25;66.16
54146;BME280;65909;49.422;7.738;2023-04-03T05:18:48;77929.31;;;-145.25;66.49
54146;BME280;65909;49.422;7.738;2023-04-03T05:21:13;77941.34;;;-145.25;66.07
54146;BME280;65909;49.422;7.738;2023-04-03T05:23:38;77937.34;;;-145.25;66.08
54146;BME280;65909;49.422;7.738;2023-04-03T05:26:04;77947.34;;;-145.25;66.02
54146;BME280;65909;49.422;7.738;2023-04-03T05:28:29;77961.41;;;-145.25;66.19
54146;BME280;65909;49.422;7.738;2023-04-03T05:30:56;77957.38;;;-145.25;66.30
54146;BME280;65909;49.422;7.738;2023-04-03T05:33:22;77963.41;;;-145.25;66.13
54146;BME280;65909;49.422;7.738;2023-04-03T05:35:48;77971.44;;;-145.25;66.04
54146;BME280;65909;49.422;7.738;2023-04-03T05:38:13;77953.38;;;-145.25;66.13
54146;BME280;65909;49.422;7.738;2023-04-03T05:40:38;77945.34;;;-145.25;66.03
54146;BME280;65909;49.422;7.738;2023-04-03T05:43:04;77939.34;;;-145.25;65.70
54146;BME280;65909;49.422;7.738;2023-04-03T05:45:30;77939.34;;;-145.25;65.19
54146;BME280;65909;49.422;7.738;2023-04-03T05:47:55;77939.34;;;-145.25;64.83
54146;BME280;65909;49.422;7.738;2023-04-03T05:50:20;77933.31;;;-145.25;65.00
54146;BME280;65909;49.422;7.738;2023-04-03T05:52:48;77915.28;;;-145.25;64.99
54146;BME280;65909;49.422;7.738;2023-04-03T05:55:14;77927.31;;;-145.25;65.01
54146;BME280;65909;49.422;7.738;2023-04-03T05:57:40;77909.25;;;-145.25;66.02
54146;BME280;65909;49.422;7.738;2023-04-03T06:00:06;77923.28;;;-145.25;65.03
54146;BME280;65909;49.422;7.738;2023-04-03T06:02:32;77911.25;;;-145.25;65.61
54146;BME280;65909;49.422;7.738;2023-04-03T06:04:58;77925.31;;;-145.25;65.22
54146;BME280;65909;49.422;7.738;2023-04-03T06:07:24;77919.28;;;-145.25;65.54
54146;BME280;65909;49.422;7.738;2023-04-03T06:09:54;77915.28;;;-145.25;64.13
54146;BME280;65909;49.422;7.738;2023-04-03T06:12:21;77885.19;;;-145.25;64.36
54146;BME280;65909;49.422;7.738;2023-04-03T06:14:47;77879.16;;;-145.25;63.62
54146;BME280;65909;49.422;7.738;2023-04-03T06:17:14;77855.09;;;-145.25;63.05
54146;BME280;65909;49.422;7.738;2023-04-03T06:19:40;77794.94;;;-145.25;61.38
54146;BME280;65909;49.422;7.738;2023-04-03T06:22:06;77732.75;;;-145.25;60.30
54146;BME280;65909;49.422;7.738;2023-04-03T06:24:31;77670.59;;;-145.25;58.81
54146;BME280;65909;49.422;7.738;2023-04-03T06:26:57;77624.47;;;-145.25;57.44
54146;BME280;65909;49.422;7.738;2023-04-03T06:29:23;77586.38;;;-145.25;56.89
54146;BME280;65909;49.422;7.738;2023-04-03T06:31:50;77570.31;;;-145.25;56.77
54146;BME280;65909;49.422;7.738;2023-04-03T06:34:15;77560.31;;;-145.25;55.42
54146;BME280;65909;49.422;7.738;2023-04-03T06:36:42;77542.25;;;-145.25;54.83
54146;BME280;65909;49.422;7.738;2023-04-03T06:39:11;77516.19;;;-145.25;54.79
54146;BME280;65909;49.422;7.738;2023-04-03T06:41:38;77496.13;;;-145.25;53.95
54146;BME280;65909;49.422;7.738;2023-04-03T06:44:03;77425.94;;;-145.25;53.08
54146;BME280;65909;49.422;7.738;2023-04-03T06:46:29;77359.75;;;-145.25;51.55
54146;BME280;65909;49.422;7.738;2023-04-03T06:48:55;77343.72;;;-145.25;51.01
54146;BME280;65909;49.422;7.738;2023-04-03T06:51:21;77323.66;;;-145.25;49.77
54146;BME280;65909;49.422;7.738;2023-04-03T06:53:48;77275.53;;;-145.25;49.65
54146;BME280;65909;49.422;7.738;2023-04-03T06:56:14;77219.41;;;-145.25;49.21
54146;BME280;65909;49.422;7.738;2023-04-03T06:58:40;77227.41;;;-145.25;48.48
54146;BME280;65909;49.422;7.738;2023-04-03T07:01:05;77175.28;;;-145.25;47.34
54146;BME280;65909;49.422;7.738;2023-04-03T07:03:31;77139.19;;;-145.25;46.23
54146;BME280;65909;49.422;7.738;2023-04-03T07:05:56;77109.09;;;-145.25;47.56
54146;BME280;65909;49.422;7.738;2023-04-03T07:08:21;77069.00;;;-145.25;46.03
54146;BME280;65909;49.422;7.738;2023-04-03T07:10:48;77022.88;;;-145.25;45.11
54146;BME280;65909;49.422;7.738;2023-04-03T07:13:15;76968.75;;;-145.25;43.62
54146;BME280;65909;49.422;7.738;2023-04-03T07:15:40;76944.69;;;-145.25;43.58
54146;BME280;65909;49.422;7.738;2023-04-03T07:18:06;76878.50;;;-145.25;42.51
54146;BME280;65909;49.422;7.738;2023-04-03T07:20:31;76790.28;;;-145.25;41.77
54146;BME280;65909;49.422;7.738;2023-04-03T07:22:56;76714.09;;;-145.25;40.57
54146;BME280;65909;49.422;7.738;2023-04-03T07:25:22;76762.22;;;-145.25;40.51
54146;BME280;65909;49.422;7.738;2023-04-03T07:27:47;76722.13;;;-145.25;39.52
54146;BME280;65909;49.422;7.738;2023-04-03T07:30:14;76714.09;;;-145.25;39.20
54146;BME280;65909;49.422;7.738;2023-04-03T07:32:39;76613.84;;;-145.25;38.63
54146;BME280;65909;49.422;7.738;2023-04-03T07:35:05;76549.69;;;-145.25;38.21
54146;BME280;65909;49.422;7.738;2023-04-03T07:37:31;76477.53;;;-145.25;36.82
54146;BME280;65909;49.422;7.738;2023-04-03T07:39:57;76493.56;;;-145.25;36.13
54146;BME280;65909;49.422;7.738;2023-04-03T07:42:24;76527.66;;;-145.25;36.39
54146;BME280;65909;49.422;7.738;2023-04-03T07:44:52;76421.38;;;-145.25;35.40
54146;BME280;65909;49.422;7.738;2023-04-03T07:47:18;76445.44;;;-145.25;34.79
54146;BME280;65909;49.422;7.738;2023-04-03T07:49:43;76361.25;;;-145.25;34.29
54146;BME280;65909;49.422;7.738;2023-04-03T07:52:09;76393.31;;;-145.25;34.25
54146;BME280;65909;49.422;7.738;2023-04-03T07:54:34;76373.28;;;-145.25;34.28
54146;BME280;65909;49.422;7.738;2023-04-03T07:57:00;76413.38;;;-145.25;34.27
54146;BME280;65909;49.422;7.738;2023-04-03T07:59:26;76381.28;;;-145.25;33.15
54146;BME280;65909;49.422;7.738;2023-04-03T08:01:51;76273.03;;;-145.25;33.14
54146;BME280;65909;49.422;7.738;2023-04-03T08:04:17;76287.06;;;-145.25;33.42
54146;BME280;65909;49.422;7.738;2023-04-03T08:06:43;76287.06;;;-145.25;32.82
54146;BME280;65909;49.422;7.738;2023-04-03T08:09:08;76269.03;;;-145.25;33.07
54146;BME280;65909;49.422;7.738;2023-04-03T08:11:34;76242.97;;;-145.25;32.27
54146;BME280;65909;49.422;7.738;2023-04-03T08:14:01;76261.00;;;-145.25;32.43
54146;BME280;65909;49.422;7.738;2023-04-03T08:16:27;76234.94;;;-145.25;32.73
54146;BME280;65909;49.422;7.738;2023-04-03T08:18:54;76148.75;;;-145.25;30.73
54146;BME280;65909;49.422;7.738;2023-04-03T08:21:19;76114.66;;;-145.25;31.55
54146;BME280;65909;49.422;7.738;2023-04-03T08:23:48;76078.56;;;-145.25;31.23
54146;BME280;65909;49.422;7.738;2023-04-03T08:26:15;76116.66;;;-145.25;30.51
54146;BME280;65909;49.422;7.738;2023-04-03T08:28:41;76076.56;;;-145.25;30.51
54146;BME280;65909;49.422;7.738;2023-04-03T08:31:10;76110.66;;;-145.25;30.44
54146;BME280;65909;49.422;7.738;2023-04-03T08:33:37;76130.69;;;-145.25;30.59
54146;BME280;65909;49.422;7.738;2023-04-03T08:36:14;76074.56;;;-145.25;30.18
54146;BME280;65909;49.422;7.738;2023-04-03T08:38:41;76112.66;;;-145.25;30.10
54146;BME280;65909;49.422;7.738;2023-04-03T08:46:59;76112.66;;;-145.25;29.94
54146;BME280;65909;49.422;7.738;2023-04-03T08:49:42;75978.34;;;-145.25;28.89
54146;BME280;65909;49.422;7.738;2023-04-03T08:52:12;75908.19;;;-145.25;29.23
54146;BME280;65909;49.422;7.738;2023-04-03T08:55:04;75948.28;;;-145.25;28.07
54146;BME280;65909;49.422;7.738;2023-04-03T08:57:38;75924.22;;;-145.25;28.19
54146;BME280;65909;49.422;7.738;2023-04-03T09:00:24;75805.94;;;-145.25;28.25
54146;BME280;65909;49.422;7.738;2023-04-03T09:02:52;75868.09;;;-145.25;28.25
54146;BME280;65909;49.422;7.738;2023-04-03T09:05:43;75862.06;;;-145.25;28.27
54146;BME280;65909;49.422;7.738;2023-04-03T09:10:49;75828.00;;;-145.25;27.96
54146;BME280;65909;49.422;7.738;2023-04-03T09:13:39;75715.75;;;-145.25;26.96
54146;BME280;65909;49.422;7.738;2023-04-03T09:16:30;75695.69;;;-145.25;27.17
54146;BME280;65909;49.422;7.738;2023-04-03T09:21:51;75757.84;;;-145.25;27.57
54146;BME280;65909;49.422;7.738;2023-04-03T09:24:17;75713.75;;;-145.25;27.02
54146;BME280;65909;49.422;7.738;2023-04-03T09:29:17;75739.81;;;-145.25;26.07
54146;BME280;65909;49.422;7.738;2023-04-03T09:31:44;75671.66;;;-145.25;26.20
54146;BME280;65909;49.422;7.738;2023-04-03T09:34:30;75653.59;;;-145.25;26.27
54146;BME280;65909;49.422;7.738;2023-04-03T09:36:59;75641.59;;;-145.25;26.02
54146;BME280;65909;49.422;7.738;2023-04-03T09:39:31;75575.44;;;-145.25;25.40
54146;BME280;65909;49.422;7.738;2023-04-03T09:42:03;75701.72;;;-145.25;26.25
54146;BME280;65909;49.422;7.738;2023-04-03T09:44:34;76002.41;;;-145.25;26.83
54146;BME280;65909;49.422;7.738;2023-04-03T09:47:17;75922.22;;;-145.25;26.64
54146;BME280;65909;49.422;7.738;2023-04-03T09:49:44;75797.94;;;-145.25;26.53
54146;BME280;65909;49.422;7.738;2023-04-03T09:52:26;75767.88;;;-145.25;25.88
54146;BME280;65909;49.422;7.738;2023-04-03T09:54:51;75815.97;;;-145.25;25.94
54146;BME280;65909;49.422;7.738;2023-04-03T09:57:18;75757.84;;;-145.25;26.45
54146;BME280;65909;49.422;7.738;2023-04-03T10:00:04;75671.66;;;-145.25;25.56
54146;BME280;65909;49.422;7.738;2023-04-03T10:02:35;75639.56;;;-145.25;25.88
54146;BME280;65909;49.422;7.738;2023-04-03T10:05:01;75587.47;;;-145.25;24.83
54146;BME280;65909;49.422;7.738;2023-04-03T10:07:33;75555.38;;;-145.25;25.52
54146;BME280;65909;49.422;7.738;2023-04-03T10:10:20;75439.13;;;-145.25;24.73
54146;BME280;65909;49.422;7.738;2023-04-03T10:12:48;75385.03;;;-145.25;24.03
54146;BME280;65909;49.422;7.738;2023-04-03T10:15:15;75368.97;;;-145.25;24.30
54146;BME280;65909;49.422;7.738;2023-04-03T10:22:59;75387.03;;;-145.25;23.55
54146;BME280;65909;49.422;7.738;2023-04-03T10:25:41;75493.25;;;-145.25;23.73
54146;BME280;65909;49.422;7.738;2023-04-03T10:28:15;75465.19;;;-145.25;23.71
54146;BME280;65909;49.422;7.738;2023-04-03T10:38:40;75489.25;;;-145.25;23.99
54146;BME280;65909;49.422;7.738;2023-04-03T10:47:06;75383.00;;;-145.25;23.77
54146;BME280;65909;49.422;7.738;2023-04-03T10:51:46;75308.84;;;-145.25;22.80
54146;BME280;65909;49.422;7.738;2023-04-03T10:54:25;75326.91;;;-145.25;22.71
54146;BME280;65909;49.422;7.738;2023-04-03T10:56:55;75342.94;;;-145.25;23.02
54146;BME280;65909;49.422;7.738;2023-04-03T10:59:32;75346.94;;;-145.25;22.43
54146;BME280;65909;49.422;7.738;2023-04-03T11:04:55;75425.09;;;-145.25;23.09
54146;BME280;65909;49.422;7.738;2023-04-03T11:07:33;75477.22;;;-145.25;22.88
54146;BME280;65909;49.422;7.738;2023-04-03T11:10:10;75425.09;;;-145.25;22.95
54146;BME280;65909;49.422;7.738;2023-04-03T11:12:44;75449.16;;;-145.25;23.18
54146;BME280;65909;49.422;7.738;2023-04-03T11:15:15;75437.13;;;-145.25;23.18
54146;BME280;65909;49.422;7.738;2023-04-03T11:17:46;75302.84;;;-145.25;22.96
54146;BME280;65909;49.422;7.738;2023-04-03T11:20:23;75254.75;;;-145.25;22.65
54146;BME280;65909;49.422;7.738;2023-04-03T11:23:12;75368.97;;;-145.25;22.07
54146;BME280;65909;49.422;7.738;2023-04-03T11:25:42;75282.81;;;-145.25;23.02
54146;BME280;65909;49.422;7.738;2023-04-03T11:28:14;75264.75;;;-145.25;22.34
54146;BME280;65909;49.422;7.738;2023-04-03T11:30:54;75238.72;;;-145.25;21.52
54146;BME280;65909;49.422;7.738;2023-04-03T11:33:47;75222.69;;;-145.25;22.04
54146;BME280;65909;49.422;7.738;2023-04-03T11:36:38;75202.63;;;-145.25;22.49
54146;BME280;65909;49.422;7.738;2023-04-03T11:39:28;75236.69;;;-145.25;21.77
54146;BME280;65909;49.422;7.738;2023-04-03T11:41:55;75234.69;;;-145.25;21.07
54146;BME280;65909;49.422;7.738;2023-04-03T11:44:37;75268.78;;;-145.25;21.68
54146;BME280;65909;49.422;7.738;2023-04-03T11:47:05;75342.94;;;-145.25;22.23
54146;BME280;65909;49.422;7.738;2023-04-03T12:11:25;75226.69;;;-145.25;21.82
54146;BME280;65909;49.422;7.738;2023-04-03T12:19:33;75296.84;;;-145.25;21.73
54146;BME280;65909;49.422;7.738;2023-04-03T12:24:33;75336.91;;;-145.25;22.03
54146;BME280;65909;49.422;7.738;2023-04-03T12:27:08;75417.09;;;-145.25;22.18
54146;BME280;65909;49.422;7.738;2023-04-03T12:29:40;75381.00;;;-145.25;22.27
54146;BME280;65909;49.422;7.738;2023-04-03T12:35:10;75218.66;;;-145.25;21.55
54146;BME280;65909;49.422;7.738;2023-04-03T12:40:21;75158.53;;;-145.25;21.62
54146;BME280;65909;49.422;7.738;2023-04-03T12:45:27;75138.50;;;-145.25;21.52
54146;BME280;65909;49.422;7.738;2023-04-03T12:47:54;75176.56;;;-145.25;21.38
54146;BME280;65909;49.422;7.738;2023-04-03T12:50:27;75304.84;;;-145.25;21.56
54146;BME280;65909;49.422;7.738;2023-04-03T12:53:06;75264.75;;;-145.25;21.29
54146;BME280;65909;49.422;7.738;2023-04-03T12:55:32;75290.81;;;-145.25;22.43
54146;BME280;65909;49.422;7.738;2023-04-03T12:58:25;75246.72;;;-145.25;22.51
54146;BME280;65909;49.422;7.738;2023-04-03T13:03:33;75358.97;;;-145.25;22.65
54146;BME280;65909;49.422;7.738;2023-04-03T13:06:02;75298.84;;;-145.25;21.83
54146;BME280;65909;49.422;7.738;2023-04-03T13:08:29;75260.75;;;-145.25;22.63
54146;BME280;65909;49.422;7.738;2023-04-03T13:11:01;75244.72;;;-145.25;22.02
54146;BME280;65909;49.422;7.738;2023-04-03T13:13:28;75306.84;;;-145.25;22.68
54146;BME280;65909;49.422;7.738;2023-04-03T13:15:54;75204.63;;;-145.25;22.18
54146;BME280;65909;49.422;7.738;2023-04-03T13:18:27;75260.75;;;-145.25;21.68
54146;BME280;65909;49.422;7.738;2023-04-03T13:21:15;75312.88;;;-145.25;22.24
54146;BME280;65909;49.422;7.738;2023-04-03T13:23:45;75340.94;;;-145.25;22.10
54146;BME280;65909;49.422;7.738;2023-04-03T13:26:12;75595.47;;;-145.25;23.15
54146;BME280;65909;49.422;7.738;2023-04-03T13:28:40;75479.22;;;-145.25;23.19
54146;BME280;65909;49.422;7.738;2023-04-03T13:33:43;75557.41;;;-145.25;23.82
54146;BME280;65909;49.422;7.738;2023-04-03T13:36:34;75583.44;;;-145.25;23.79
54146;BME280;65909;49.422;7.738;2023-04-03T13:41:46;75671.66;;;-145.25;23.09
54146;BME280;65909;49.422;7.738;2023-04-03T13:44:34;75755.84;;;-145.25;23.09
54146;BME280;65909;49.422;7.738;2023-04-03T13:47:22;75733.78;;;-145.25;23.34
54146;BME280;65909;49.422;7.738;2023-04-03T13:52:42;75755.84;;;-145.25;23.83
54146;BME280;65909;49.422;7.738;2023-04-03T13:55:25;75705.72;;;-145.25;23.96
54146;BME280;65909;49.422;7.738;2023-04-03T13:58:01;75679.66;;;-145.25;23.96
54146;BME280;65909;49.422;7.738;2023-04-03T14:02:57;75821.97;;;-145.25;24.12
54146;BME280;65909;49.422;7.738;2023-04-03T14:05:24;75890.13;;;-145.25;24.65
54146;BME280;65909;49.422;7.738;2023-04-03T14:07:51;75948.28;;;-145.25;24.29
54146;BME280;65909;49.422;7.738;2023-04-03T14:10:16;75980.34;;;-145.25;25.60
54146;BME280;65909;49.422;7.738;2023-04-03T14:12:42;76078.56;;;-145.25;26.40
54146;BME280;65909;49.422;7.738;2023-04-03T14:15:20;76166.78;;;-145.25;26.92
54146;BME280;65909;49.422;7.738;2023-04-03T14:17:45;76255.00;;;-145.25;26.92
54146;BME280;65909;49.422;7.738;2023-04-03T14:20:19;76387.31;;;-145.25;27.88
54146;BME280;65909;49.422;7.738;2023-04-03T14:22:46;76479.53;;;-145.25;28.23
54146;BME280;65909;49.422;7.738;2023-04-03T14:25:11;76529.66;;;-145.25;29.15